createdAt,value
2019-03-25T00:01:48.421Z,33.27
2019-03-25T00:04:16.886Z,25.63
2019-03-25T00:06:46.515Z,26.73
2019-03-25T00:09:18.141Z,30.60
2019-03-25T00:11:47.055Z,29.07
2019-03-25T00:14:16.936Z,27.57
2019-03-25T00:16:46.142Z,31.33
2019-03-25T00:19:15.293Z,26.37
2019-03-25T00:21:52.317Z,28.57
2019-03-25T00:24:21.271Z,31.93
2019-03-25T00:26:51.142Z,32.07
2019-03-25T00:29:20.113Z,31.40
2019-03-25T00:31:48.540Z,32.97
2019-03-25T00:34:17.238Z,28.17
2019-03-25T00:36:47.384Z,26.03
2019-03-25T00:39:15.812Z,30.07
2019-03-25T00:41:44.491Z,30.17
2019-03-25T00:44:22.925Z,32.30
2019-03-25T00:46:51.895Z,32.90
2019-03-25T00:49:20.662Z,29.33
2019-03-25T00:51:49.129Z,28.77
2019-03-25T00:54:23.162Z,31.73
2019-03-25T00:56:51.639Z,28.97
2019-03-25T00:59:20.081Z,27.63
2019-03-25T01:01:48.782Z,24.97
2019-03-25T01:04:18.685Z,29.63
2019-03-25T01:06:47.210Z,27.37
2019-03-25T01:09:19.533Z,28.57
2019-03-25T01:11:49.306Z,26.37
2019-03-25T01:14:18.122Z,25.50
2019-03-25T01:16:46.681Z,24.63
2019-03-25T01:19:15.576Z,24.33
2019-03-25T01:21:44.975Z,30.57
2019-03-25T01:24:21.720Z,20.83
2019-03-25T01:26:50.219Z,30.37
2019-03-25T01:29:18.850Z,28.13
2019-03-25T01:31:47.304Z,26.63
2019-03-25T01:34:23.523Z,28.50
2019-03-25T01:36:52.021Z,28.63
2019-03-25T01:39:20.448Z,25.80
2019-03-25T01:41:50.420Z,31.37
2019-03-25T01:44:18.853Z,27.27
2019-03-25T01:46:47.401Z,30.93
2019-03-25T01:49:18.110Z,23.23
2019-03-25T01:52:11.055Z,29.27
2019-03-25T01:54:44.452Z,23.33
2019-03-25T01:57:15.135Z,25.00
2019-03-25T01:59:44.627Z,22.60
2019-03-25T02:02:14.337Z,22.80
2019-03-25T02:05:12.738Z,21.70
2019-03-25T02:07:43.786Z,17.63
2019-03-25T02:10:16.732Z,25.73
2019-03-25T02:12:45.568Z,18.17
2019-03-25T02:15:19.761Z,23.70
2019-03-25T02:17:48.827Z,18.67
2019-03-25T02:20:26.200Z,20.27
2019-03-25T02:23:06.388Z,20.53
2019-03-25T02:25:46.164Z,22.67
2019-03-25T02:28:15.709Z,25.47
2019-03-25T02:30:44.721Z,27.90
2019-03-25T02:33:44.553Z,28.70
2019-03-25T02:36:14.403Z,21.17
2019-03-25T02:38:43.361Z,21.70
2019-03-25T02:41:14.320Z,18.80
2019-03-25T02:43:44.493Z,23.60
2019-03-25T02:46:14.933Z,21.77
2019-03-25T02:48:43.881Z,23.43
2019-03-25T02:51:23.530Z,28.13
2019-03-25T02:53:51.989Z,25.50
2019-03-25T02:56:20.448Z,25.07
2019-03-25T02:58:48.869Z,25.67
2019-03-25T03:01:17.296Z,32.97
2019-03-25T03:03:59.482Z,30.10
2019-03-25T03:06:31.931Z,25.03
2019-03-25T03:09:13.883Z,26.13
2019-03-25T03:11:43.528Z,21.93
2019-03-25T03:14:15.490Z,26.53
2019-03-25T03:16:45.622Z,26.83
2019-03-25T03:19:15.495Z,24.83
2019-03-25T03:21:44.444Z,20.53
2019-03-25T03:24:19.405Z,24.23
2019-03-25T03:26:47.903Z,24.03
2019-03-25T03:29:16.382Z,26.13
2019-03-25T03:31:45.406Z,24.70
2019-03-25T03:34:22.052Z,24.67
2019-03-25T03:36:50.700Z,26.10
2019-03-25T03:39:19.173Z,21.30
2019-03-25T03:41:47.657Z,26.40
2019-03-25T03:44:16.293Z,28.67
2019-03-25T03:46:45.429Z,24.17
2019-03-25T03:49:27.049Z,23.83
2019-03-25T03:51:56.718Z,21.87
2019-03-25T03:54:25.395Z,24.27
2019-03-25T03:56:55.462Z,22.27
2019-03-25T03:59:26.319Z,25.60
2019-03-25T04:01:54.834Z,27.17
2019-03-25T04:04:23.261Z,26.80
2019-03-25T04:06:51.700Z,31.87
2019-03-25T04:09:20.156Z,33.60
2019-03-25T04:11:48.663Z,32.97
2019-03-25T04:14:17.211Z,26.23
2019-03-25T04:16:46.753Z,20.40
2019-03-25T04:19:16.494Z,23.03
2019-03-25T04:21:46.790Z,27.00
2019-03-25T04:24:29.428Z,20.47
2019-03-25T04:27:00.730Z,22.33
2019-03-25T04:29:29.195Z,23.67
2019-03-25T04:31:59.800Z,21.97
2019-03-25T04:34:32.690Z,25.90
2019-03-25T04:37:04.032Z,24.60
2019-03-25T04:39:37.920Z,28.17
2019-03-25T04:42:14.252Z,23.17
2019-03-25T04:44:44.818Z,27.10
2019-03-25T04:47:14.917Z,27.73
2019-03-25T04:49:48.675Z,33.60
2019-03-25T04:52:17.172Z,27.87
2019-03-25T04:54:45.990Z,28.77
2019-03-25T04:57:19.257Z,30.83
2019-03-25T04:59:47.681Z,20.77
2019-03-25T05:02:16.573Z,24.00
2019-03-25T05:04:45.438Z,29.20
2019-03-25T05:07:15.733Z,32.13
2019-03-25T05:09:51.507Z,32.83
2019-03-25T05:12:21.014Z,32.53
2019-03-25T05:14:49.469Z,26.40
2019-03-25T05:17:17.911Z,28.13
2019-03-25T05:19:46.347Z,26.57
2019-03-25T05:22:18.846Z,23.73
2019-03-25T05:24:47.323Z,21.43
2019-03-25T05:27:16.376Z,23.57
2019-03-25T05:29:45.933Z,21.90
2019-03-25T05:32:16.235Z,23.10
2019-03-25T05:34:46.009Z,26.50
2019-03-25T05:37:15.024Z,21.37
2019-03-25T05:39:46.179Z,25.80
2019-03-25T05:42:16.799Z,21.30
2019-03-25T05:44:46.559Z,15.93
2019-03-25T05:47:15.182Z,17.13
2019-03-25T05:49:47.838Z,18.67
2019-03-25T05:52:17.106Z,13.97
2019-03-25T05:54:46.565Z,20.43
2019-03-25T05:57:15.278Z,21.97
2019-03-25T06:00:06.459Z,14.73
2019-03-25T06:02:43.384Z,17.30
2019-03-25T06:05:17.688Z,13.27
2019-03-25T06:08:19.008Z,15.77
2019-03-25T06:10:47.676Z,14.47
2019-03-25T06:13:16.179Z,14.03
2019-03-25T06:15:44.793Z,13.13
2019-03-25T06:18:14.710Z,13.97
2019-03-25T06:20:45.158Z,15.03
2019-03-25T06:23:14.844Z,15.83
2019-03-25T06:25:44.205Z,19.13
2019-03-25T06:28:14.052Z,17.20
2019-03-25T06:30:44.504Z,17.30
2019-03-25T06:33:13.669Z,13.63
2019-03-25T06:35:44.132Z,14.07
2019-03-25T06:38:15.884Z,13.00
2019-03-25T06:40:49.120Z,12.33
2019-03-25T06:43:18.894Z,18.27
2019-03-25T06:45:48.274Z,22.80
2019-03-25T06:48:16.743Z,15.80
2019-03-25T06:50:49.167Z,10.20
2019-03-25T06:53:18.203Z,20.03
2019-03-25T06:55:48.983Z,14.23
2019-03-25T06:58:19.307Z,14.40
2019-03-25T07:00:48.395Z,14.13
2019-03-25T07:03:18.316Z,15.83
2019-03-25T07:05:49.537Z,10.60
2019-03-25T07:08:19.460Z,12.87
2019-03-25T07:10:49.492Z,20.13
2019-03-25T07:13:19.445Z,12.17
2019-03-25T07:15:48.002Z,10.37
2019-03-25T07:18:16.460Z,10.83
2019-03-25T07:20:45.183Z,12.60
2019-03-25T07:23:14.375Z,12.73
2019-03-25T07:25:44.785Z,15.53
2019-03-25T07:28:15.358Z,12.17
2019-03-25T07:30:44.324Z,6.90
2019-03-25T07:33:34.650Z,9.50
2019-03-25T07:36:08.827Z,12.93
2019-03-25T07:39:10.607Z,9.47
2019-03-25T07:41:42.177Z,12.43
2019-03-25T07:44:13.058Z,12.00
2019-03-25T07:46:44.628Z,11.23
2019-03-25T07:49:14.851Z,7.60
2019-03-25T07:51:44.393Z,10.60
2019-03-25T07:54:15.583Z,8.87
2019-03-25T07:56:45.458Z,9.73
2019-03-25T07:59:18.138Z,12.67
2019-03-25T08:01:46.153Z,10.60
2019-03-25T08:04:15.025Z,10.63
2019-03-25T08:06:43.988Z,8.57
2019-03-25T08:09:13.577Z,9.00
2019-03-25T08:12:00.242Z,10.43
2019-03-25T08:14:35.158Z,11.17
2019-03-25T08:17:11.165Z,11.67
2019-03-25T08:19:43.087Z,12.30
2019-03-25T08:25:14.548Z,8.17
2019-03-25T08:27:44.645Z,10.17
2019-03-25T08:30:14.615Z,9.07
2019-03-25T08:32:44.597Z,8.47
2019-03-25T08:43:06.169Z,11.30
2019-03-25T08:45:46.812Z,10.37
2019-03-25T08:48:21.136Z,4.73
2019-03-25T08:50:49.225Z,6.80
2019-03-25T08:53:17.808Z,11.47
2019-03-25T08:55:47.501Z,4.63
2019-03-25T08:58:16.220Z,7.27
2019-03-25T09:00:45.304Z,5.07
2019-03-25T09:03:24.516Z,7.47
2019-03-25T09:05:53.024Z,8.70
2019-03-25T09:08:21.473Z,7.97
2019-03-25T09:10:49.895Z,7.50
2019-03-25T09:13:18.377Z,5.57
2019-03-25T09:15:46.813Z,12.50
2019-03-25T09:18:15.921Z,11.47
2019-03-25T09:20:45.237Z,11.20
2019-03-25T09:23:15.030Z,5.93
2019-03-25T09:25:44.155Z,7.93
2019-03-25T09:28:23.667Z,5.97
2019-03-25T09:31:14.471Z,6.50
2019-03-25T09:33:45.691Z,6.03
2019-03-25T09:36:15.628Z,9.60
2019-03-25T09:38:45.847Z,5.43
2019-03-25T09:41:40.691Z,5.63
2019-03-25T09:44:14.031Z,5.23
2019-03-25T09:46:43.919Z,5.30
2019-03-25T09:49:14.948Z,3.90
2019-03-25T09:51:44.993Z,5.27
2019-03-25T09:54:15.017Z,16.83
2019-03-25T09:56:45.373Z,5.27
2019-03-25T09:59:15.412Z,11.07
2019-03-25T10:01:45.484Z,4.90
2019-03-25T10:04:15.783Z,6.97
2019-03-25T10:06:45.034Z,5.70
2019-03-25T10:09:14.804Z,6.23
2019-03-25T10:11:46.022Z,5.07
2019-03-25T10:14:15.916Z,5.63
2019-03-25T10:16:45.448Z,3.17
2019-03-25T10:19:16.143Z,5.23
2019-03-25T10:21:44.789Z,5.47
2019-03-25T10:24:27.816Z,3.67
2019-03-25T10:26:54.420Z,6.20
2019-03-25T10:29:23.076Z,5.17
2019-03-25T10:31:51.537Z,3.73
2019-03-25T10:34:19.976Z,3.00
2019-03-25T10:36:48.413Z,6.60
2019-03-25T10:39:17.358Z,6.40
2019-03-25T10:41:45.801Z,4.33
2019-03-25T10:44:16.688Z,3.43
2019-03-25T10:46:45.397Z,4.07
2019-03-25T10:49:16.184Z,3.40
2019-03-25T10:51:44.997Z,4.77
2019-03-25T10:54:16.031Z,4.30
2019-03-25T10:56:49.269Z,3.67
2019-03-25T10:59:16.177Z,1.83
2019-03-25T11:01:45.178Z,2.90
2019-03-25T11:04:16.016Z,7.10
2019-03-25T11:06:44.570Z,4.50
2019-03-25T11:09:15.759Z,3.37
2019-03-25T11:11:46.021Z,4.20
2019-03-25T11:14:15.046Z,3.63
2019-03-25T11:17:25.725Z,3.70
2019-03-25T11:19:54.161Z,1.50
2019-03-25T11:22:22.577Z,1.97
2019-03-25T11:24:51.038Z,6.70
2019-03-25T11:27:19.447Z,6.77
2019-03-25T11:29:48.045Z,1.90
2019-03-25T11:32:16.488Z,3.00
2019-03-25T11:34:46.037Z,2.53
2019-03-25T11:37:16.518Z,2.87
2019-03-25T11:39:45.227Z,5.90
2019-03-25T11:42:15.825Z,2.33
2019-03-25T11:44:45.115Z,2.40
2019-03-25T11:47:15.935Z,3.53
2019-03-25T11:49:45.214Z,5.73
2019-03-25T11:52:15.105Z,4.30
2019-03-25T11:54:45.162Z,6.67
2019-03-25T11:57:15.385Z,2.03
2019-03-25T11:59:44.352Z,2.40
2019-03-25T12:02:17.489Z,1.40
2019-03-25T12:04:44.282Z,3.87
2019-03-25T12:07:37.728Z,1.43
2019-03-25T12:10:12.670Z,2.30
2019-03-25T12:12:43.240Z,3.00
2019-03-25T12:15:14.476Z,5.50
2019-03-25T12:17:44.434Z,5.60
2019-03-25T12:20:14.415Z,3.60
2019-03-25T12:22:44.289Z,2.77
2019-03-25T12:25:13.399Z,7.03
2019-03-25T12:27:44.875Z,3.43
2019-03-25T12:30:14.635Z,3.93
2019-03-25T12:32:44.154Z,1.83
2019-03-25T12:35:13.656Z,5.53
2019-03-25T12:37:45.233Z,3.53
2019-03-25T12:40:40.650Z,3.57
2019-03-25T12:43:13.429Z,2.10
2019-03-25T12:45:44.299Z,2.87
2019-03-25T12:48:14.163Z,2.80
2019-03-25T12:50:44.420Z,4.23
2019-03-25T12:53:14.877Z,2.37
2019-03-25T12:55:45.523Z,1.87
2019-03-25T12:58:14.661Z,4.23
2019-03-25T13:01:08.369Z,4.70
2019-03-25T13:03:48.097Z,2.23
2019-03-25T13:06:16.562Z,2.73
2019-03-25T13:08:45.435Z,4.27
2019-03-25T13:11:14.417Z,3.20
2019-03-25T13:14:18.995Z,2.37
2019-03-25T13:16:47.741Z,3.87
2019-03-25T13:19:16.227Z,4.63
2019-03-25T13:21:46.444Z,2.43
2019-03-25T13:24:15.440Z,4.90
2019-03-25T13:26:45.231Z,2.67
2019-03-25T13:29:15.067Z,2.97
2019-03-25T13:31:44.030Z,4.20
2019-03-25T13:34:14.182Z,4.17
2019-03-25T13:36:44.371Z,3.23
2019-03-25T13:39:23.889Z,3.07
2019-03-25T13:41:52.481Z,4.10
2019-03-25T13:44:20.983Z,2.87
2019-03-25T13:46:49.438Z,3.90
2019-03-25T13:49:17.877Z,4.23
2019-03-25T13:51:46.358Z,8.00
2019-03-25T13:54:20.895Z,2.23
2019-03-25T13:56:49.341Z,3.50
2019-03-25T13:59:17.976Z,2.30
2019-03-25T14:01:46.442Z,3.80
2019-03-25T14:04:15.981Z,2.37
2019-03-25T14:06:52.584Z,2.47
2019-03-25T14:09:21.795Z,5.80
2019-03-25T14:11:59.026Z,2.70
2019-03-25T14:14:28.294Z,8.57
2019-03-25T14:17:15.893Z,2.00
2019-03-25T14:19:45.220Z,1.50
2019-03-25T14:22:16.273Z,2.70
2019-03-25T14:24:45.439Z,4.87
2019-03-25T14:27:15.013Z,2.03
2019-03-25T14:29:44.876Z,1.33
2019-03-25T14:32:14.803Z,2.33
2019-03-25T14:34:45.273Z,2.50
2019-03-25T14:37:15.527Z,2.77
2019-03-25T14:39:44.727Z,3.00
2019-03-25T14:42:15.628Z,3.57
2019-03-25T14:44:45.523Z,2.60
2019-03-25T14:47:16.362Z,5.47
2019-03-25T14:49:45.808Z,2.97
2019-03-25T14:52:14.817Z,6.43
2019-03-25T14:54:44.738Z,10.03
2019-03-25T14:57:15.592Z,5.57
2019-03-25T14:59:44.892Z,3.30
2019-03-25T15:06:00.360Z,4.07
2019-03-25T15:08:35.982Z,5.93
2019-03-25T15:11:09.675Z,2.87
2019-03-25T15:13:44.385Z,3.67
2019-03-25T15:16:14.980Z,1.57
2019-03-25T15:18:45.835Z,7.83
2019-03-25T15:21:15.035Z,3.13
2019-03-25T15:23:45.814Z,2.23
2019-03-25T15:26:15.301Z,2.00
2019-03-25T15:28:44.051Z,2.70
2019-03-25T15:31:13.892Z,9.13
2019-03-25T15:34:01.783Z,5.43
2019-03-25T15:36:36.169Z,5.57
2019-03-25T15:41:50.196Z,5.17
2019-03-25T15:44:23.479Z,8.27
2019-03-25T15:46:55.995Z,4.63
2019-03-25T15:49:22.086Z,3.37
2019-03-25T15:52:09.423Z,5.13
2019-03-25T15:54:43.004Z,2.30
2019-03-25T15:57:13.459Z,4.50
2019-03-25T15:59:43.760Z,4.60
2019-03-25T16:02:14.549Z,3.50
2019-03-25T16:04:44.522Z,5.90
2019-03-25T16:09:52.224Z,2.73
2019-03-25T16:12:20.724Z,3.97
2019-03-25T16:14:49.224Z,4.17
2019-03-25T16:17:17.667Z,4.97
2019-03-25T16:19:46.321Z,5.87
2019-03-25T16:22:15.359Z,3.17
2019-03-25T16:24:50.103Z,7.03
2019-03-25T16:27:24.445Z,4.33
2019-03-25T16:29:53.087Z,3.43
2019-03-25T16:32:21.543Z,2.77
2019-03-25T16:34:49.979Z,4.60
2019-03-25T16:37:18.421Z,5.07
2019-03-25T16:39:46.846Z,5.07
2019-03-25T16:42:15.553Z,4.93
2019-03-25T16:44:48.365Z,4.77
2019-03-25T16:47:16.792Z,3.67
2019-03-25T16:49:45.287Z,6.00
2019-03-25T16:52:14.601Z,1.53
2019-03-25T16:54:45.725Z,3.70
2019-03-25T16:57:14.761Z,5.53
2019-03-25T16:59:44.232Z,1.90
2019-03-25T17:02:15.608Z,4.43
2019-03-25T17:04:44.780Z,2.70
2019-03-25T17:07:13.802Z,1.77
2019-03-25T17:09:43.467Z,4.83
2019-03-25T17:12:13.851Z,2.17
2019-03-25T17:14:51.179Z,2.30
2019-03-25T17:17:41.940Z,5.57
2019-03-25T17:20:10.679Z,3.00
2019-03-25T17:22:39.096Z,2.17
2019-03-25T17:25:08.288Z,2.57
2019-03-25T17:27:36.718Z,3.07
2019-03-25T17:37:17.474Z,3.20
2019-03-25T17:39:46.128Z,4.87
2019-03-25T17:42:14.558Z,3.50
2019-03-25T17:44:43.001Z,4.90
2019-03-25T17:47:11.427Z,3.07
2019-03-25T17:49:39.954Z,3.90
2019-03-25T17:52:08.379Z,4.20
2019-03-25T17:54:36.868Z,3.67
2019-03-25T17:57:05.819Z,5.63
2019-03-25T17:59:34.385Z,3.13
2019-03-25T18:02:02.972Z,4.23
2019-03-25T18:04:31.472Z,3.70
2019-03-25T18:06:59.964Z,3.40
2019-03-25T18:09:28.498Z,5.43
2019-03-25T18:11:56.988Z,1.83
2019-03-25T18:14:25.669Z,4.93
2019-03-25T18:16:54.935Z,8.30
2019-03-25T18:19:23.388Z,5.77
2019-03-25T18:21:52.078Z,4.87
2019-03-25T18:24:20.522Z,2.33
2019-03-25T18:26:49.106Z,3.43
2019-03-25T18:29:17.551Z,3.27
2019-03-25T18:31:46.067Z,1.33
2019-03-25T18:34:14.743Z,3.57
2019-03-25T18:36:43.182Z,4.17
2019-03-25T18:39:11.652Z,4.27
2019-03-25T18:41:40.210Z,2.80
2019-03-25T18:44:08.671Z,3.13
2019-03-25T18:46:38.324Z,5.27
2019-03-25T18:49:06.912Z,3.40
2019-03-25T18:51:36.060Z,3.47
2019-03-25T18:54:04.607Z,6.33
2019-03-25T18:56:33.021Z,6.10
2019-03-25T18:59:01.598Z,2.97
2019-03-25T19:01:39.284Z,4.03
2019-03-25T19:04:07.903Z,3.97
2019-03-25T19:06:36.897Z,4.30
2019-03-25T19:09:07.895Z,6.83
2019-03-25T19:11:36.542Z,3.47
2019-03-25T19:14:05.106Z,5.50
2019-03-25T19:16:57.854Z,11.10
2019-03-25T19:19:26.339Z,6.50
2019-03-25T19:22:00.780Z,3.97
2019-03-25T19:24:29.338Z,3.13
2019-03-25T19:27:03.606Z,4.50
2019-03-25T19:29:32.030Z,5.23
2019-03-25T19:32:06.668Z,5.73
2019-03-25T19:34:30.757Z,6.30
2019-03-25T19:36:59.246Z,3.20
2019-03-25T19:39:27.764Z,4.90
2019-03-25T19:41:56.284Z,7.50
2019-03-25T19:47:19.569Z,5.00
2019-03-25T19:49:51.234Z,7.60
2019-03-25T19:52:19.827Z,4.80
2019-03-25T19:54:48.259Z,4.93
2019-03-25T19:57:29.962Z,5.63
2019-03-25T20:02:51.898Z,6.40
2019-03-25T20:05:20.497Z,8.10
2019-03-25T20:07:50.605Z,6.87
2019-03-25T20:10:39.052Z,5.73
2019-03-25T20:13:17.408Z,9.40
2019-03-25T20:15:49.384Z,5.80
2019-03-25T20:18:25.100Z,5.60
2019-03-25T20:20:53.591Z,4.17
2019-03-25T20:23:41.893Z,4.10
2019-03-25T20:26:30.504Z,4.33
2019-03-25T20:29:23.281Z,4.37
2019-03-25T20:31:52.019Z,4.70
2019-03-25T20:34:21.234Z,8.13
2019-03-25T20:36:52.812Z,6.27
2019-03-25T20:39:21.721Z,5.37
2019-03-25T20:41:51.284Z,5.77
2019-03-25T20:44:22.333Z,6.40
2019-03-25T20:47:13.179Z,8.40
2019-03-25T20:49:48.220Z,10.63
2019-03-25T20:52:20.304Z,9.50
2019-03-25T20:54:50.815Z,8.43
2019-03-25T20:57:19.414Z,6.93
2019-03-25T21:00:17.349Z,6.80
2019-03-25T21:02:48.678Z,10.20
2019-03-25T21:05:55.554Z,9.90
2019-03-25T21:08:24.365Z,10.97
2019-03-25T21:11:15.562Z,11.30
2019-03-25T21:13:47.116Z,9.67
2019-03-25T21:16:16.029Z,7.20
2019-03-25T21:18:47.675Z,8.43
2019-03-25T21:21:17.714Z,10.97
2019-03-25T21:38:16.011Z,10.17
2019-03-25T21:40:44.737Z,10.97
2019-03-25T21:43:14.318Z,12.03
2019-03-25T21:45:47.406Z,12.63
2019-03-25T21:48:15.901Z,12.83
2019-03-25T21:50:46.454Z,15.03
2019-03-25T21:53:15.283Z,16.60
2019-03-25T21:55:45.042Z,15.43
2019-03-25T21:58:19.770Z,17.77
2019-03-25T22:00:48.339Z,17.93
2019-03-25T22:03:16.772Z,16.77
2019-03-25T22:05:46.068Z,19.33
2019-03-25T22:08:14.816Z,13.63
2019-03-25T22:10:45.873Z,14.70
2019-03-25T22:13:17.676Z,23.20
2019-03-25T22:15:46.137Z,19.00
2019-03-25T22:18:15.849Z,14.70
2019-03-25T22:20:45.049Z,15.20
2019-03-25T22:23:14.883Z,14.97
2019-03-25T22:25:44.164Z,16.37
2019-03-25T22:28:14.281Z,18.70
2019-03-25T22:33:45.989Z,20.23
2019-03-25T22:36:14.589Z,14.50
2019-03-25T22:39:17.240Z,16.73
2019-03-25T22:41:46.455Z,15.00
2019-03-25T22:44:18.402Z,18.70
2019-03-25T22:46:47.299Z,14.57
2019-03-25T22:49:15.904Z,21.07
2019-03-25T22:51:45.456Z,17.30
2019-03-25T22:54:43.781Z,17.33
2019-03-25T22:57:28.485Z,21.00
2019-03-25T22:59:59.633Z,17.10
2019-03-25T23:05:22.976Z,15.70
2019-03-25T23:07:51.405Z,17.70
2019-03-25T23:10:19.833Z,15.43
2019-03-25T23:13:03.021Z,15.67
2019-03-25T23:15:46.978Z,19.67
2019-03-25T23:18:15.758Z,17.27
2019-03-25T23:20:46.268Z,23.10
2019-03-25T23:23:26.902Z,27.20
2019-03-25T23:25:56.556Z,23.37
2019-03-25T23:28:28.251Z,24.07
2019-03-25T23:31:16.277Z,19.73
2019-03-25T23:33:52.046Z,21.77
2019-03-25T23:36:16.466Z,20.87
2019-03-25T23:38:46.411Z,18.30
2019-03-25T23:41:15.417Z,27.00
2019-03-25T23:43:45.431Z,23.93
2019-03-25T23:46:15.547Z,23.27
2019-03-25T23:49:44.091Z,26.87
2019-03-25T23:55:15.936Z,23.13
2019-03-25T23:57:45.272Z,33.33
